Time;durP1;ratioP1;P1;durP2;ratioP2;P2;SDS_P1;SDS_P2;PMS_P1;PMS_P2;Temp;Humidity;BMP_temperature;BMP_pressure;BME280_temperature;BME280_humidity;BME280_pressure;Samples;Min_cycle;Max_cycle;Signal;HPM_P1;HPM_P2
2021/07/14 00:01:36;;;;;;;30.70;20.10;;;21.40;99.90;;;;;;5030124;28;20456;-71
2021/07/14 00:04:05;;;;;;;31.60;19.57;;;21.40;99.90;;;;;;5032450;28;20487;-69
2021/07/14 00:06:32;;;;;;;33.50;19.73;;;21.30;99.90;;;;;;5022253;28;20462;-73
2021/07/14 00:08:59;;;;;;;31.20;20.03;;;21.30;99.90;;;;;;5026794;28;20517;-70
2021/07/14 00:11:28;;;;;;;31.37;19.37;;;21.30;99.90;;;;;;5035977;28;20641;-76
2021/07/14 00:14:14;;;;;;;31.93;21.30;;;21.20;99.90;;;;;;5034406;28;20483;-71
2021/07/14 00:22:13;;;;;;;31.27;22.50;;;21.30;99.90;;;;;;5035236;28;20866;-75
2021/07/14 00:24:41;;;;;;;31.50;18.97;;;21.30;99.90;;;;;;5027781;28;20487;-69
2021/07/14 00:27:10;;;;;;;28.70;18.27;;;21.30;99.90;;;;;;5030774;28;20455;-74
2021/07/14 00:29:47;;;;;;;29.43;19.77;;;21.20;99.90;;;;;;5032520;28;20544;-70
2021/07/14 00:32:14;;;;;;;32.43;19.37;;;21.20;99.90;;;;;;5030770;28;20901;-71
2021/07/14 00:34:42;;;;;;;28.87;18.93;;;21.30;99.90;;;;;;5028893;28;22437;-71
2021/07/14 00:37:09;;;;;;;30.77;20.87;;;21.20;99.90;;;;;;5036029;28;20451;-72
2021/07/14 00:39:37;;;;;;;24.33;18.40;;;21.20;99.90;;;;;;5028551;28;20664;-70
2021/07/14 00:42:04;;;;;;;31.80;20.93;;;21.20;99.90;;;;;;5024611;28;20578;-70
2021/07/14 00:44:32;;;;;;;27.60;19.03;;;21.20;99.90;;;;;;5034194;28;21114;-71
2021/07/14 00:47:01;;;;;;;35.37;18.67;;;21.20;99.90;;;;;;5032222;28;20566;-69
2021/07/14 00:49:29;;;;;;;36.43;21.50;;;21.00;99.90;;;;;;5035711;28;20471;-69
2021/07/14 00:51:58;;;;;;;31.13;20.03;;;21.00;99.90;;;;;;5028917;28;20503;-68
2021/07/14 00:54:25;;;;;;;31.23;20.37;;;21.00;99.90;;;;;;5023209;28;20535;-75
2021/07/14 00:56:52;;;;;;;27.37;19.10;;;21.10;99.90;;;;;;5031130;28;20531;-74
2021/07/14 00:59:19;;;;;;;30.93;19.90;;;21.20;99.90;;;;;;5028597;28;20465;-70
2021/07/14 01:01:47;;;;;;;29.43;19.90;;;21.20;99.90;;;;;;5035228;28;20978;-71
2021/07/14 01:04:18;;;;;;;28.80;18.97;;;21.20;99.90;;;;;;5033569;28;20511;-70
2021/07/14 01:06:53;;;;;;;29.53;20.77;;;21.10;99.90;;;;;;5037782;28;20538;-70
2021/07/14 01:09:28;;;;;;;30.40;20.47;;;21.20;99.90;;;;;;5037116;28;20458;-70
2021/07/14 01:12:02;;;;;;;32.80;21.57;;;21.10;99.90;;;;;;5034835;28;20483;-70
2021/07/14 01:14:40;;;;;;;27.07;19.20;;;21.20;99.90;;;;;;5039973;28;20499;-71
2021/07/14 01:17:12;;;;;;;29.73;19.70;;;21.10;99.90;;;;;;5040526;28;20455;-70
2021/07/14 01:20:15;;;;;;;35.07;20.30;;;21.10;99.90;;;;;;5038015;28;20450;-72
2021/07/14 01:22:50;;;;;;;34.13;22.00;;;21.10;99.90;;;;;;5036004;28;20533;-73
2021/07/14 01:25:33;;;;;;;32.13;20.70;;;21.10;99.90;;;;;;5038961;28;21093;-69
2021/07/14 01:28:04;;;;;;;37.83;23.20;;;21.10;99.90;;;;;;5041926;28;20454;-69
2021/07/14 01:30:31;;;;;;;33.43;21.30;;;21.10;99.90;;;;;;5035838;28;20549;-71
2021/07/14 01:33:02;;;;;;;30.57;19.90;;;21.20;99.90;;;;;;5039048;28;20475;-73
2021/07/14 01:35:35;;;;;;;36.97;20.83;;;21.20;99.90;;;;;;5042749;28;20527;-69
2021/07/14 01:38:03;;;;;;;30.77;20.53;;;21.20;99.90;;;;;;5031560;28;20541;-70
2021/07/14 01:40:33;;;;;;;33.10;20.57;;;21.00;99.90;;;;;;5031501;28;20542;-70
2021/07/14 01:43:04;;;;;;;31.00;19.00;;;21.00;99.90;;;;;;5035697;28;20556;-73
2021/07/14 01:45:34;;;;;;;28.83;19.50;;;21.00;99.90;;;;;;5041477;28;20510;-72
2021/07/14 01:48:03;;;;;;;28.87;19.43;;;20.90;99.90;;;;;;5037598;28;20812;-70
2021/07/14 01:50:31;;;;;;;37.03;20.20;;;20.90;99.90;;;;;;5038536;28;20479;-72
2021/07/14 01:52:59;;;;;;;34.23;20.90;;;20.90;99.90;;;;;;5035433;28;20706;-71
2021/07/14 01:55:27;;;;;;;34.43;19.93;;;21.10;99.90;;;;;;5037935;28;20528;-71
2021/07/14 01:57:57;;;;;;;31.40;20.13;;;21.10;99.90;;;;;;5040016;28;20544;-74
2021/07/14 02:00:27;;;;;;;29.73;20.70;;;21.10;99.90;;;;;;5036393;28;22764;-73
2021/07/14 02:03:04;;;;;;;31.00;19.80;;;21.00;99.90;;;;;;5038987;28;20501;-73
2021/07/14 02:05:32;;;;;;;34.63;20.70;;;21.00;99.90;;;;;;5041464;28;20492;-70
2021/07/14 02:08:00;;;;;;;42.47;24.57;;;21.00;99.90;;;;;;5042246;28;20674;-68
2021/07/14 02:10:29;;;;;;;31.10;20.70;;;21.00;99.90;;;;;;5039823;28;20459;-71
2021/07/14 02:12:56;;;;;;;32.07;22.40;;;21.10;99.90;;;;;;5036989;28;20912;-69
2021/07/14 02:15:27;;;;;;;34.97;23.20;;;20.90;99.90;;;;;;5039297;28;20543;-70
2021/07/14 02:17:57;;;;;;;37.20;22.77;;;20.90;99.90;;;;;;5041322;28;21255;-70
2021/07/14 02:20:25;;;;;;;34.43;21.40;;;20.90;99.90;;;;;;5034891;28;20535;-72
2021/07/14 02:22:52;;;;;;;36.77;20.37;;;20.90;99.90;;;;;;5038058;28;20570;-71
2021/07/14 02:25:20;;;;;;;33.53;21.07;;;20.80;99.90;;;;;;5032792;28;20485;-70
2021/07/14 02:27:47;;;;;;;29.83;20.00;;;20.80;99.90;;;;;;5032418;28;20446;-69
2021/07/14 02:30:18;;;;;;;28.20;17.23;;;20.80;99.90;;;;;;5033587;28;20472;-70
2021/07/14 02:32:49;;;;;;;36.07;21.13;;;20.70;99.90;;;;;;5032219;28;20590;-73
2021/07/14 02:35:17;;;;;;;32.60;20.60;;;20.80;99.90;;;;;;5035622;28;20885;-69
2021/07/14 02:37:50;;;;;;;30.80;19.50;;;20.70;99.90;;;;;;5036250;28;20662;-69
2021/07/14 02:40:25;;;;;;;26.13;17.80;;;20.70;99.90;;;;;;5034777;28;20577;-73
2021/07/14 02:42:56;;;;;;;31.30;20.40;;;20.70;99.90;;;;;;5029239;28;20490;-70
2021/07/14 02:45:23;;;;;;;29.10;19.97;;;20.80;99.90;;;;;;5036041;28;20479;-67
2021/07/14 02:47:53;;;;;;;35.07;20.53;;;20.80;99.90;;;;;;5031408;28;21071;-72
2021/07/14 02:50:23;;;;;;;36.27;19.10;;;20.80;99.90;;;;;;5037649;28;20452;-68
2021/07/14 02:52:54;;;;;;;30.77;19.33;;;20.80;99.90;;;;;;5027679;28;20475;-69
2021/07/14 02:55:25;;;;;;;31.70;20.47;;;20.80;99.90;;;;;;5028460;28;20610;-70
2021/07/14 02:57:55;;;;;;;39.40;20.70;;;20.80;99.90;;;;;;5033523;28;20458;-69
2021/07/14 03:00:23;;;;;;;30.67;20.23;;;20.80;99.90;;;;;;5030048;28;20445;-74
2021/07/14 03:02:53;;;;;;;29.97;20.20;;;20.90;99.90;;;;;;5038022;28;20474;-69
2021/07/14 03:05:21;;;;;;;32.37;20.07;;;20.90;99.90;;;;;;5032778;28;20519;-70
2021/07/14 03:07:49;;;;;;;32.30;20.77;;;20.80;99.90;;;;;;5040899;28;20538;-70
2021/07/14 03:10:18;;;;;;;28.70;19.40;;;20.80;99.90;;;;;;5035153;28;20489;-70
2021/07/14 03:12:47;;;;;;;29.00;18.57;;;20.70;99.90;;;;;;5033461;28;20564;-70
2021/07/14 03:15:14;;;;;;;27.27;17.83;;;20.80;99.90;;;;;;5042222;28;20475;-71
2021/07/14 03:17:43;;;;;;;33.57;19.33;;;20.70;99.90;;;;;;5037043;28;21079;-72
2021/07/14 03:20:16;;;;;;;35.10;20.23;;;20.80;99.90;;;;;;5037112;28;20482;-71
2021/07/14 03:22:45;;;;;;;36.63;20.80;;;20.80;99.90;;;;;;5038432;28;20579;-74
2021/07/14 03:25:14;;;;;;;36.53;22.10;;;20.90;99.90;;;;;;5042150;28;20505;-69
2021/07/14 03:27:42;;;;;;;31.17;18.20;;;20.70;99.90;;;;;;5051762;28;20468;-70
2021/07/14 03:30:10;;;;;;;28.60;19.70;;;20.80;99.90;;;;;;5036894;28;20588;-70
2021/07/14 03:32:39;;;;;;;31.47;18.90;;;20.80;99.90;;;;;;5031792;28;20487;-74
2021/07/14 03:35:07;;;;;;;30.40;16.80;;;20.80;99.90;;;;;;5028773;28;20535;-72
2021/07/14 03:37:36;;;;;;;31.77;19.43;;;20.80;99.90;;;;;;5031705;28;20516;-73
2021/07/14 03:40:06;;;;;;;32.87;19.27;;;20.70;99.90;;;;;;5030681;28;21434;-69
2021/07/14 03:42:33;;;;;;;32.90;19.83;;;20.70;99.90;;;;;;5038539;28;20486;-72
2021/07/14 03:45:02;;;;;;;31.17;21.30;;;20.70;99.90;;;;;;5041394;28;20595;-71
2021/07/14 03:47:29;;;;;;;33.60;22.23;;;20.80;99.90;;;;;;5040194;28;20451;-69
2021/07/14 03:49:57;;;;;;;34.80;21.70;;;20.80;99.90;;;;;;5043384;28;20538;-68
2021/07/14 03:52:25;;;;;;;37.90;20.80;;;20.80;99.90;;;;;;5032942;28;20611;-74
2021/07/14 03:54:55;;;;;;;35.30;21.87;;;20.90;99.90;;;;;;5028446;28;20439;-70
2021/07/14 03:57:25;;;;;;;40.67;20.70;;;20.80;99.90;;;;;;5028202;28;20444;-70
2021/07/14 03:59:52;;;;;;;38.13;19.73;;;20.80;99.90;;;;;;5032428;28;20855;-69
2021/07/14 04:02:20;;;;;;;36.80;18.13;;;20.90;99.90;;;;;;5030877;28;20572;-74
2021/07/14 04:04:49;;;;;;;41.90;22.60;;;20.90;99.90;;;;;;5029114;28;20606;-72
2021/07/14 04:07:17;;;;;;;34.17;20.53;;;20.90;99.90;;;;;;5027601;28;20585;-69
2021/07/14 04:09:45;;;;;;;34.67;18.97;;;20.90;99.90;;;;;;5028920;28;20551;-69
2021/07/14 04:12:16;;;;;;;34.53;20.90;;;21.00;99.90;;;;;;5033366;28;20486;-70
2021/07/14 04:14:43;;;;;;;38.00;22.37;;;20.90;99.90;;;;;;5042749;28;20463;-69
2021/07/14 04:17:10;;;;;;;35.27;20.53;;;21.00;99.90;;;;;;5041135;28;20978;-70
2021/07/14 04:19:39;;;;;;;33.47;20.00;;;21.00;99.90;;;;;;5038204;28;20551;-70
2021/07/14 04:22:07;;;;;;;33.30;19.73;;;21.00;99.90;;;;;;5038138;28;20859;-70
2021/07/14 04:24:34;;;;;;;31.80;19.27;;;21.00;99.90;;;;;;5038378;28;20996;-70
2021/07/14 04:27:01;;;;;;;34.17;19.13;;;20.90;99.90;;;;;;5032452;28;20466;-71
2021/07/14 04:29:30;;;;;;;34.60;19.90;;;20.90;99.90;;;;;;5033808;28;20566;-72
2021/07/14 04:31:57;;;;;;;35.50;20.23;;;20.80;99.90;;;;;;5037043;28;20544;-74
2021/07/14 04:34:24;;;;;;;35.03;21.27;;;20.60;99.90;;;;;;5037513;28;21028;-71
2021/07/14 04:36:50;;;;;;;31.80;18.10;;;20.70;99.90;;;;;;5033874;28;20498;-72
2021/07/14 04:39:18;;;;;;;34.13;19.87;;;20.70;99.90;;;;;;5037336;28;20546;-70
2021/07/14 04:41:45;;;;;;;38.70;19.80;;;20.60;99.90;;;;;;5031653;28;20999;-71
2021/07/14 04:44:14;;;;;;;40.63;20.53;;;20.70;99.90;;;;;;5034467;28;20467;-70
2021/07/14 04:46:42;;;;;;;37.10;16.30;;;20.70;99.90;;;;;;5036273;28;20477;-70
2021/07/14 04:49:09;;;;;;;39.87;18.77;;;20.70;99.90;;;;;;5036220;28;20538;-70
2021/07/14 04:51:36;;;;;;;38.60;19.20;;;20.70;99.90;;;;;;5029971;28;20452;-69
2021/07/14 04:54:03;;;;;;;38.40;18.77;;;20.60;99.90;;;;;;5033615;28;20452;-71
2021/07/14 04:56:30;;;;;;;31.30;18.67;;;20.70;99.90;;;;;;5035767;28;20521;-70
2021/07/14 04:58:57;;;;;;;32.10;17.80;;;20.70;99.90;;;;;;5031768;28;20443;-70
2021/07/14 05:01:24;;;;;;;39.37;20.50;;;20.60;99.90;;;;;;5041490;28;20479;-73
2021/07/14 05:03:52;;;;;;;32.03;19.50;;;20.60;99.90;;;;;;5061621;28;20490;-75
2021/07/14 05:06:20;;;;;;;29.37;18.83;;;20.50;99.90;;;;;;5041198;28;20484;-71
2021/07/14 05:08:47;;;;;;;28.40;15.73;;;20.60;99.90;;;;;;5043912;28;20838;-70
2021/07/14 05:11:14;;;;;;;33.50;18.90;;;20.70;99.90;;;;;;5036469;28;20906;-68
2021/07/14 05:13:41;;;;;;;31.83;18.27;;;20.70;99.90;;;;;;5045903;28;20511;-70
2021/07/14 05:16:08;;;;;;;29.87;17.23;;;20.70;99.90;;;;;;5038242;28;20468;-71
2021/07/14 05:18:36;;;;;;;35.57;17.43;;;20.80;99.90;;;;;;5043949;28;20436;-70
2021/07/14 05:21:05;;;;;;;27.43;15.77;;;20.80;99.90;;;;;;5039829;28;20550;-70
2021/07/14 05:23:32;;;;;;;30.67;18.37;;;20.70;99.90;;;;;;5036598;28;20852;-72
2021/07/14 05:25:59;;;;;;;26.03;15.27;;;20.70;99.90;;;;;;5042218;28;20478;-69
2021/07/14 05:28:26;;;;;;;28.50;17.57;;;20.70;99.90;;;;;;5044931;28;20448;-70
2021/07/14 05:30:53;;;;;;;27.20;15.90;;;20.60;99.90;;;;;;5040611;28;20549;-69
2021/07/14 05:33:21;;;;;;;30.60;19.10;;;20.60;99.90;;;;;;5037438;28;20898;-71
2021/07/14 05:35:48;;;;;;;30.60;16.47;;;20.60;99.90;;;;;;5043977;28;20902;-69
2021/07/14 05:38:20;;;;;;;26.97;16.43;;;20.60;99.90;;;;;;5045688;28;20490;-72
2021/07/14 05:40:47;;;;;;;26.27;16.13;;;20.60;99.90;;;;;;5039553;28;20543;-74
2021/07/14 05:43:14;;;;;;;29.63;16.80;;;20.50;99.90;;;;;;5044186;28;20495;-69
2021/07/14 05:45:41;;;;;;;21.60;12.90;;;20.60;99.90;;;;;;5040655;28;20558;-71
2021/07/14 05:48:08;;;;;;;28.80;16.03;;;20.60;99.90;;;;;;5036304;28;20517;-71
2021/07/14 05:50:36;;;;;;;28.53;16.60;;;20.60;99.90;;;;;;5042223;28;20454;-72
2021/07/14 05:53:03;;;;;;;28.60;16.70;;;20.60;99.90;;;;;;5040804;28;20554;-71
2021/07/14 05:55:32;;;;;;;30.30;17.13;;;20.60;99.90;;;;;;5045622;28;20518;-70
2021/07/14 05:57:59;;;;;;;31.87;17.00;;;20.50;99.90;;;;;;5045647;28;20869;-69
2021/07/14 06:00:27;;;;;;;30.17;15.37;;;20.60;99.90;;;;;;5047286;28;20542;-76
2021/07/14 06:02:54;;;;;;;30.73;16.20;;;20.60;99.90;;;;;;5045656;28;20479;-70
2021/07/14 06:05:20;;;;;;;28.50;16.97;;;20.60;99.90;;;;;;5043954;28;20567;-71
2021/07/14 06:07:47;;;;;;;30.37;14.63;;;20.50;99.90;;;;;;5050110;28;20535;-74
2021/07/14 06:10:14;;;;;;;32.10;17.07;;;20.70;99.90;;;;;;5047867;28;20446;-71
2021/07/14 06:12:43;;;;;;;40.03;18.10;;;20.60;99.90;;;;;;5045619;28;20510;-71
2021/07/14 06:15:10;;;;;;;28.83;15.20;;;20.60;99.90;;;;;;5043314;28;20521;-76
2021/07/14 06:17:37;;;;;;;29.23;18.17;;;20.70;99.90;;;;;;5046648;28;20440;-77
2021/07/14 06:20:05;;;;;;;24.80;16.70;;;20.70;99.90;;;;;;5046742;28;20442;-71
2021/07/14 06:22:32;;;;;;;32.40;15.57;;;20.60;99.90;;;;;;5043599;28;20488;-74
2021/07/14 06:24:59;;;;;;;32.60;17.10;;;20.50;99.90;;;;;;5045956;28;20476;-71
2021/07/14 06:27:26;;;;;;;29.47;15.60;;;20.60;99.90;;;;;;5048182;28;20475;-70
2021/07/14 06:29:54;;;;;;;28.17;15.33;;;20.50;99.90;;;;;;5045224;28;20491;-70
2021/07/14 06:32:21;;;;;;;34.67;16.00;;;20.60;99.90;;;;;;5044849;28;20523;-71
2021/07/14 06:34:48;;;;;;;24.27;15.07;;;20.60;99.90;;;;;;5044308;28;20888;-70
2021/07/14 06:37:15;;;;;;;31.97;18.23;;;20.70;99.90;;;;;;5047414;28;20451;-70
2021/07/14 06:39:42;;;;;;;25.10;12.90;;;20.70;99.90;;;;;;5041652;28;20498;-72
2021/07/14 06:42:09;;;;;;;23.13;14.20;;;20.80;99.90;;;;;;5046044;28;20968;-69
2021/07/14 06:44:37;;;;;;;26.87;12.90;;;20.80;99.90;;;;;;5047353;28;20447;-70
2021/07/14 06:47:05;;;;;;;27.30;15.50;;;20.70;99.90;;;;;;5045801;28;20957;-70
2021/07/14 06:49:32;;;;;;;21.30;13.90;;;20.70;99.90;;;;;;5040214;28;20678;-70
2021/07/14 06:52:00;;;;;;;19.33;12.97;;;20.80;99.90;;;;;;5045637;28;20593;-71
2021/07/14 06:54:27;;;;;;;17.80;11.53;;;20.80;99.90;;;;;;5045731;28;20444;-72
2021/07/14 06:56:54;;;;;;;22.77;10.50;;;20.70;99.90;;;;;;5048967;28;20519;-70
2021/07/14 06:59:21;;;;;;;24.50;12.10;;;20.70;99.90;;;;;;5043385;28;20890;-70
2021/07/14 07:01:48;;;;;;;16.90;11.40;;;20.70;99.90;;;;;;5048009;28;20491;-73
2021/07/14 07:04:16;;;;;;;14.90;11.20;;;20.70;99.90;;;;;;5044791;28;20488;-69
2021/07/14 07:06:43;;;;;;;19.83;10.37;;;20.70;99.90;;;;;;5048758;28;20494;-75
2021/07/14 07:09:10;;;;;;;19.30;10.70;;;20.70;99.90;;;;;;5044951;28;20464;-71
2021/07/14 07:11:37;;;;;;;17.27;8.97;;;20.70;99.90;;;;;;5047099;28;20547;-69
2021/07/14 07:14:04;;;;;;;16.47;10.10;;;20.80;99.90;;;;;;5047668;28;21661;-72
2021/07/14 07:16:32;;;;;;;18.60;10.43;;;20.70;99.90;;;;;;5046504;28;20518;-69
2021/07/14 07:18:58;;;;;;;16.60;11.20;;;20.80;99.90;;;;;;5046730;28;20939;-70
2021/07/14 07:21:27;;;;;;;21.13;11.90;;;20.90;99.90;;;;;;5041654;28;20547;-73
2021/07/14 07:23:54;;;;;;;13.77;9.53;;;20.80;99.90;;;;;;5041837;28;20858;-69
2021/07/14 07:26:21;;;;;;;13.63;9.70;;;20.80;99.90;;;;;;5044515;28;20550;-69
2021/07/14 07:28:48;;;;;;;16.83;10.00;;;20.70;99.90;;;;;;5048265;28;20525;-70
2021/07/14 07:31:15;;;;;;;19.87;9.93;;;20.70;99.90;;;;;;5037286;28;20459;-71
2021/07/14 07:33:42;;;;;;;17.47;10.27;;;20.70;99.90;;;;;;5037015;28;20865;-69
2021/07/14 07:36:09;;;;;;;24.07;11.77;;;20.70;99.90;;;;;;5045177;28;20535;-72
2021/07/14 07:38:40;;;;;;;24.27;12.63;;;20.70;99.90;;;;;;5046310;28;20539;-69
2021/07/14 07:41:07;;;;;;;20.70;9.67;;;20.70;99.90;;;;;;5045111;28;20464;-69
2021/07/14 07:43:34;;;;;;;23.47;12.47;;;20.70;99.90;;;;;;5060894;28;20468;-71
2021/07/14 07:46:01;;;;;;;31.33;12.03;;;20.60;99.90;;;;;;5066133;28;20474;-70
2021/07/14 07:48:29;;;;;;;19.50;11.10;;;20.60;99.90;;;;;;5045175;28;20431;-70
2021/07/14 07:50:56;;;;;;;29.03;15.53;;;20.60;99.90;;;;;;5033355;28;20558;-73
2021/07/14 07:53:23;;;;;;;26.43;12.60;;;20.50;99.90;;;;;;5040566;28;20483;-70
2021/07/14 07:55:53;;;;;;;26.60;12.53;;;20.40;99.90;;;;;;5041821;28;20548;-70
2021/07/14 07:58:21;;;;;;;23.70;12.70;;;20.50;99.90;;;;;;5041555;28;20467;-74
2021/07/14 08:00:48;;;;;;;33.33;15.13;;;20.50;99.90;;;;;;5043495;28;20471;-72
2021/07/14 08:03:15;;;;;;;24.13;13.87;;;20.50;99.90;;;;;;5043584;28;21053;-71
2021/07/14 08:05:42;;;;;;;31.50;16.80;;;20.50;99.90;;;;;;5041982;28;20542;-75
2021/07/14 08:08:10;;;;;;;31.50;15.50;;;20.40;99.90;;;;;;5039923;28;20536;-70
2021/07/14 08:10:37;;;;;;;33.27;16.03;;;20.60;99.90;;;;;;5043968;28;20531;-70
2021/07/14 08:13:08;;;;;;;37.27;16.20;;;20.60;99.90;;;;;;5044231;28;20558;-69
2021/07/14 08:15:35;;;;;;;32.10;17.10;;;20.70;99.90;;;;;;5045437;28;20451;-71
2021/07/14 08:18:02;;;;;;;32.97;13.40;;;20.80;99.90;;;;;;5046694;28;20478;-68
2021/07/14 08:20:29;;;;;;;30.17;15.20;;;20.80;99.90;;;;;;5043982;28;20479;-71
2021/07/14 08:22:56;;;;;;;39.37;16.03;;;20.80;99.90;;;;;;5040007;28;20503;-68
2021/07/14 08:25:24;;;;;;;30.57;13.27;;;20.70;99.90;;;;;;5044387;28;20541;-69
2021/07/14 08:27:51;;;;;;;30.70;14.67;;;20.60;99.90;;;;;;5040252;28;21096;-74
2021/07/14 08:30:20;;;;;;;25.17;14.57;;;20.60;99.90;;;;;;5043603;28;20467;-70
2021/07/14 08:32:47;;;;;;;30.67;16.80;;;20.70;99.90;;;;;;5041645;28;20537;-69
2021/07/14 08:35:14;;;;;;;36.17;15.40;;;20.80;99.90;;;;;;5045325;28;20957;-68
2021/07/14 08:37:41;;;;;;;27.83;15.60;;;20.80;99.90;;;;;;5035738;28;20558;-72
2021/07/14 08:40:10;;;;;;;31.33;15.07;;;20.80;99.90;;;;;;5042014;28;20444;-69
2021/07/14 08:42:39;;;;;;;28.67;14.00;;;20.80;99.90;;;;;;5042136;28;20475;-73
2021/07/14 08:45:08;;;;;;;31.37;15.10;;;20.90;99.90;;;;;;5047933;28;20460;-73
2021/07/14 08:47:39;;;;;;;21.70;13.67;;;20.90;99.90;;;;;;5045237;28;20567;-70
2021/07/14 08:50:09;;;;;;;31.23;15.40;;;20.80;99.90;;;;;;5044846;28;20482;-70
2021/07/14 08:52:39;;;;;;;21.23;11.63;;;20.80;99.90;;;;;;5042196;28;20503;-71
2021/07/14 08:55:07;;;;;;;27.40;14.30;;;21.00;99.90;;;;;;5041092;28;20464;-76
2021/07/14 08:57:37;;;;;;;37.03;13.70;;;20.80;99.90;;;;;;5045637;28;20440;-71
2021/07/14 09:00:08;;;;;;;33.33;12.63;;;20.90;99.90;;;;;;5050295;28;20447;-73
2021/07/14 09:02:39;;;;;;;43.83;14.70;;;21.00;99.90;;;;;;5041846;28;20565;-71
2021/07/14 09:05:07;;;;;;;34.23;14.07;;;21.00;99.90;;;;;;5043466;28;20519;-73
2021/07/14 09:07:35;;;;;;;26.47;14.13;;;21.20;99.90;;;;;;5045545;28;20527;-69
2021/07/14 09:10:02;;;;;;;31.40;15.53;;;21.10;99.90;;;;;;5041688;28;20478;-68
2021/07/14 09:12:35;;;;;;;25.53;13.80;;;21.10;99.90;;;;;;5036837;28;20900;-72
2021/07/14 09:15:07;;;;;;;24.70;13.67;;;21.10;99.90;;;;;;5044443;28;20444;-71
2021/07/14 09:17:42;;;;;;;27.30;14.50;;;21.20;99.90;;;;;;5048352;28;20485;-72
2021/07/14 09:20:12;;;;;;;31.00;13.43;;;21.30;99.90;;;;;;5043832;28;21162;-72
2021/07/14 09:22:39;;;;;;;22.73;11.77;;;21.40;99.90;;;;;;5052901;28;20507;-74
2021/07/14 09:25:12;;;;;;;21.50;11.63;;;21.30;99.90;;;;;;5060884;28;20511;-71
2021/07/14 09:27:39;;;;;;;21.57;12.60;;;21.20;99.90;;;;;;5063493;28;20482;-70
2021/07/14 09:30:16;;;;;;;21.57;12.57;;;21.20;99.90;;;;;;5052573;28;20452;-70
2021/07/14 09:32:47;;;;;;;22.63;11.53;;;21.30;99.90;;;;;;5048975;28;20560;-67
2021/07/14 09:35:24;;;;;;;26.37;13.73;;;21.10;99.90;;;;;;5051415;28;20470;-70
2021/07/14 09:37:51;;;;;;;24.70;13.50;;;21.10;99.90;;;;;;5049538;28;20866;-71
2021/07/14 09:40:20;;;;;;;23.23;13.50;;;21.20;99.90;;;;;;5049043;28;20463;-69
2021/07/14 09:42:56;;;;;;;32.67;13.80;;;21.20;99.90;;;;;;5045475;28;20536;-69
2021/07/14 09:45:57;;;;;;;24.30;12.83;;;21.40;99.90;;;;;;5050247;28;20522;-70
2021/07/14 09:48:28;;;;;;;17.43;11.20;;;21.30;99.90;;;;;;4969940;28;20593;-70
2021/07/14 09:50:57;;;;;;;28.57;14.10;;;21.40;99.90;;;;;;4972808;28;20455;-69
2021/07/14 09:53:27;;;;;;;21.67;12.30;;;21.40;99.90;;;;;;5005011;28;20479;-69
2021/07/14 09:55:56;;;;;;;24.37;14.90;;;21.30;99.90;;;;;;5048464;28;20493;-69
2021/07/14 09:58:25;;;;;;;24.53;14.83;;;21.30;99.90;;;;;;5049053;28;20474;-70
2021/07/14 10:00:54;;;;;;;23.47;14.17;;;21.30;99.90;;;;;;5046912;28;20539;-69
2021/07/14 10:03:29;;;;;;;26.53;13.40;;;21.30;99.90;;;;;;5044138;28;20558;-71
2021/07/14 10:06:09;;;;;;;23.50;14.67;;;21.50;99.90;;;;;;5046182;28;21119;-70
2021/07/14 10:08:37;;;;;;;25.37;12.70;;;21.60;99.90;;;;;;5049925;28;20475;-70
2021/07/14 10:11:11;;;;;;;32.23;13.50;;;21.60;99.90;;;;;;5044689;28;20535;-72
2021/07/14 10:13:41;;;;;;;22.00;12.63;;;21.70;99.90;;;;;;5045802;28;20484;-69
2021/07/14 10:16:08;;;;;;;24.33;14.73;;;21.80;99.90;;;;;;5046708;28;21003;-74
2021/07/14 10:18:36;;;;;;;19.83;12.87;;;21.90;99.90;;;;;;5044635;28;20459;-71
2021/07/14 10:21:04;;;;;;;24.57;13.97;;;21.80;99.90;;;;;;5049442;28;20455;-70
2021/07/14 10:23:32;;;;;;;22.60;12.47;;;21.80;99.90;;;;;;5046076;28;20518;-73
2021/07/14 10:26:00;;;;;;;25.20;13.30;;;21.70;99.90;;;;;;5045003;28;21267;-70
2021/07/14 10:28:29;;;;;;;26.60;14.73;;;21.50;99.90;;;;;;5045509;28;20479;-69
2021/07/14 10:30:58;;;;;;;21.60;14.30;;;21.40;99.90;;;;;;5044908;28;20565;-70
2021/07/14 10:33:26;;;;;;;24.77;13.67;;;21.40;99.90;;;;;;5043885;28;20475;-70
2021/07/14 10:35:57;;;;;;;32.00;17.37;;;21.50;99.90;;;;;;5049914;28;20443;-69
2021/07/14 10:38:27;;;;;;;32.13;15.43;;;21.30;99.90;;;;;;5048615;28;20533;-69
2021/07/14 10:40:56;;;;;;;29.80;16.03;;;21.20;99.90;;;;;;5049405;28;20494;-71
2021/07/14 10:43:26;;;;;;;24.77;15.57;;;21.30;99.90;;;;;;5045298;28;20479;-73
2021/07/14 10:45:53;;;;;;;31.73;16.33;;;21.20;99.90;;;;;;5049629;28;20451;-70
2021/07/14 10:48:22;;;;;;;30.97;16.03;;;21.20;99.90;;;;;;5046070;28;21061;-75
2021/07/14 10:50:50;;;;;;;35.57;16.23;;;21.20;99.90;;;;;;5047417;28;20458;-71
2021/07/14 10:53:19;;;;;;;32.90;16.20;;;21.20;99.90;;;;;;5048491;28;21064;-69
2021/07/14 10:55:47;;;;;;;33.50;18.97;;;21.00;99.90;;;;;;5043679;28;20490;-70
2021/07/14 10:58:17;;;;;;;33.87;18.07;;;21.10;99.90;;;;;;5048597;28;20531;-69
2021/07/14 11:00:45;;;;;;;41.17;20.30;;;21.10;99.90;;;;;;5046013;28;20939;-73
2021/07/14 11:03:46;;;;;;;30.00;18.67;;;21.20;99.90;;;;;;5059574;28;20494;-71
2021/07/14 11:06:15;;;;;;;34.87;17.40;;;21.20;99.90;;;;;;5049901;28;20455;-70
2021/07/14 11:08:46;;;;;;;31.90;17.07;;;21.20;99.90;;;;;;5047736;28;20996;-70
2021/07/14 11:11:15;;;;;;;27.90;17.20;;;21.30;99.90;;;;;;5043765;28;20527;-76
2021/07/14 11:13:43;;;;;;;35.30;17.30;;;21.30;99.90;;;;;;5041730;28;20503;-72
2021/07/14 11:16:30;;;;;;;29.07;18.53;;;21.50;99.90;;;;;;5047315;28;20471;-71
2021/07/14 11:18:59;;;;;;;29.90;17.30;;;21.50;99.90;;;;;;5046269;28;20432;-69
2021/07/14 11:21:46;;;;;;;32.50;19.90;;;21.60;99.90;;;;;;5046094;28;20479;-70
2021/07/14 11:24:57;;;;;;;31.23;19.10;;;21.70;99.90;;;;;;5048899;28;20999;-69
2021/07/14 11:27:53;;;;;;;32.80;19.00;;;21.80;99.90;;;;;;5045555;28;20483;-71
2021/07/14 11:30:45;;;;;;;42.23;19.27;;;21.90;99.90;;;;;;5009252;28;20487;-70
2021/07/14 11:33:24;;;;;;;37.87;18.40;;;22.00;99.90;;;;;;5045130;28;20511;-71
2021/07/14 11:35:53;;;;;;;35.23;19.90;;;22.10;99.90;;;;;;5047183;28;20432;-69
2021/07/14 11:38:23;;;;;;;28.10;17.70;;;22.00;99.90;;;;;;5039952;28;20904;-71
2021/07/14 11:40:52;;;;;;;35.93;19.57;;;22.00;99.90;;;;;;5048404;28;20497;-72
2021/07/14 11:43:27;;;;;;;34.00;18.20;;;22.20;99.90;;;;;;5045614;28;20574;-70
2021/07/14 11:45:57;;;;;;;36.50;20.30;;;22.10;99.90;;;;;;5047609;28;20496;-70
2021/07/14 11:48:37;;;;;;;38.50;19.90;;;22.10;99.90;;;;;;5044075;28;20515;-70
2021/07/14 11:51:08;;;;;;;28.67;17.80;;;21.90;99.90;;;;;;5042474;28;20446;-69
2021/07/14 11:53:39;;;;;;;38.10;20.07;;;22.00;99.90;;;;;;5043892;28;20569;-69
2021/07/14 11:56:09;;;;;;;31.50;18.40;;;22.00;99.90;;;;;;5047042;28;20443;-70
2021/07/14 11:59:07;;;;;;;37.00;21.60;;;22.10;99.90;;;;;;5046723;28;20563;-70
2021/07/14 12:02:08;;;;;;;30.90;19.83;;;22.00;99.90;;;;;;5037327;28;20618;-70
2021/07/14 12:04:40;;;;;;;35.50;21.70;;;22.00;99.90;;;;;;5046487;28;20522;-70
2021/07/14 12:07:16;;;;;;;43.40;20.10;;;22.00;99.90;;;;;;5044176;28;20867;-70
2021/07/14 12:09:44;;;;;;;38.13;21.00;;;21.90;99.90;;;;;;5042711;28;20450;-70
2021/07/14 12:12:18;;;;;;;31.93;20.00;;;21.80;99.90;;;;;;5041186;28;20483;-70
2021/07/14 12:14:48;;;;;;;31.90;19.80;;;21.80;99.90;;;;;;5043752;28;20648;-70
2021/07/14 12:17:16;;;;;;;28.93;18.27;;;21.80;99.90;;;;;;5048350;28;20494;-70
2021/07/14 12:19:45;;;;;;;30.87;21.17;;;21.70;99.90;;;;;;5041209;28;20501;-74
2021/07/14 12:22:15;;;;;;;43.23;23.43;;;21.70;99.90;;;;;;5044013;28;20577;-70
2021/07/14 12:24:47;;;;;;;39.83;22.40;;;21.70;99.90;;;;;;5044826;28;20452;-72
2021/07/14 12:27:20;;;;;;;51.50;20.17;;;21.80;99.90;;;;;;5039923;28;20525;-71
2021/07/14 12:29:51;;;;;;;35.90;20.47;;;21.80;99.90;;;;;;5042133;28;20452;-70
2021/07/14 12:32:29;;;;;;;40.30;21.90;;;21.70;99.90;;;;;;5041520;28;20487;-70
2021/07/14 12:34:56;;;;;;;40.60;21.43;;;21.80;99.90;;;;;;5044160;28;20963;-73
2021/07/14 12:37:23;;;;;;;32.70;21.20;;;21.70;99.90;;;;;;5048191;28;20898;-72
2021/07/14 12:39:50;;;;;;;41.90;21.93;;;21.80;99.90;;;;;;5044790;28;20530;-70
2021/07/14 12:42:21;;;;;;;38.77;21.97;;;21.70;99.90;;;;;;5042987;28;20560;-73
2021/07/14 12:44:51;;;;;;;37.47;22.73;;;21.80;99.90;;;;;;5044622;28;20494;-69
2021/07/14 12:47:20;;;;;;;36.93;21.60;;;21.90;99.90;;;;;;5046097;28;20483;-69